createdAt,value
2018-07-30T05:31:32.012Z,4.20
2018-07-30T05:34:01.522Z,4.20
2018-07-30T05:36:30.188Z,4.23
2018-07-30T05:38:59.234Z,4.20
2018-07-30T05:41:27.885Z,4.30
2018-07-30T05:44:11.836Z,3.90
2018-07-30T05:46:40.208Z,4.23
2018-07-30T05:49:09.566Z,4.17
2018-07-30T05:51:38.202Z,4.33
2018-07-30T05:54:07.120Z,4.27
2018-07-30T05:56:36.742Z,4.83
2018-07-30T05:59:05.532Z,4.37
2018-07-30T06:01:34.196Z,4.13
2018-07-30T06:04:03.565Z,4.03
2018-07-30T06:06:32.170Z,4.50
2018-07-30T06:09:01.825Z,4.70
2018-07-30T06:11:30.583Z,4.40
2018-07-30T06:13:59.299Z,4.73
2018-07-30T06:16:28.052Z,4.87
2018-07-30T06:18:56.754Z,4.70
2018-07-30T06:21:25.427Z,4.77
2018-07-30T06:23:54.114Z,5.60
2018-07-30T06:26:22.763Z,5.87
2018-07-30T06:28:51.617Z,4.90
2018-07-30T06:31:20.317Z,5.53
2018-07-30T06:33:49.056Z,5.70
2018-07-30T06:36:17.808Z,5.53
2018-07-30T06:38:46.509Z,5.30
2018-07-30T06:41:15.139Z,5.57
2018-07-30T06:43:43.857Z,6.07
2018-07-30T06:46:12.577Z,6.00
2018-07-30T06:48:41.675Z,5.73
2018-07-30T06:51:10.815Z,5.63
2018-07-30T06:53:41.604Z,5.33
2018-07-30T06:56:10.631Z,5.97
2018-07-30T06:58:40.319Z,5.50
2018-07-30T07:01:09.048Z,5.33
2018-07-30T07:03:37.751Z,5.63
2018-07-30T07:06:08.268Z,6.00
2018-07-30T07:08:37.015Z,5.40
2018-07-30T07:11:05.715Z,5.80
2018-07-30T07:13:34.458Z,5.73
2018-07-30T07:16:03.184Z,5.30
2018-07-30T07:18:33.359Z,5.03
2018-07-30T07:21:02.318Z,5.30
2018-07-30T07:23:31.053Z,5.10
2018-07-30T07:26:00.734Z,5.30
2018-07-30T07:28:29.443Z,5.23
2018-07-30T07:30:58.072Z,5.03
2018-07-30T07:33:26.915Z,5.10
2018-07-30T07:35:55.636Z,5.33
2018-07-30T07:38:24.328Z,5.10
2018-07-30T07:40:53.024Z,4.90
2018-07-30T07:43:21.666Z,5.03
2018-07-30T07:45:50.418Z,5.67
2018-07-30T07:48:19.177Z,5.37
2018-07-30T07:50:48.068Z,5.10
2018-07-30T07:53:17.182Z,5.13
2018-07-30T07:55:46.300Z,4.80
2018-07-30T07:58:15.125Z,5.07
2018-07-30T08:00:43.914Z,5.33
2018-07-30T08:03:12.628Z,5.10
2018-07-30T08:05:41.312Z,5.50
2018-07-30T08:08:10.652Z,5.10
2018-07-30T08:10:39.315Z,5.20
2018-07-30T08:13:07.669Z,4.90
2018-07-30T08:15:36.385Z,5.40
2018-07-30T08:18:05.166Z,4.97
2018-07-30T08:20:33.802Z,5.80
2018-07-30T08:23:02.530Z,5.20
2018-07-30T08:25:31.184Z,5.17
2018-07-30T08:27:59.854Z,5.53
2018-07-30T08:30:28.558Z,4.83
2018-07-30T08:32:57.252Z,4.97
2018-07-30T08:35:26.020Z,5.10
2018-07-30T08:37:54.666Z,5.00
2018-07-30T08:40:23.447Z,4.80
2018-07-30T08:42:52.155Z,4.87
2018-07-30T08:45:20.875Z,4.73
2018-07-30T08:47:49.551Z,5.07
2018-07-30T08:50:18.192Z,5.03
2018-07-30T08:52:46.825Z,5.03
2018-07-30T08:55:15.788Z,4.83
2018-07-30T08:57:44.892Z,4.63
2018-07-30T09:00:13.479Z,4.80
2018-07-30T09:02:42.159Z,4.90
2018-07-30T09:05:10.986Z,5.07
2018-07-30T09:07:39.732Z,4.80
2018-07-30T09:10:08.792Z,4.30
2018-07-30T09:12:38.124Z,4.43
2018-07-30T09:15:07.391Z,4.50
2018-07-30T09:17:36.099Z,4.10
2018-07-30T09:20:05.561Z,4.60
2018-07-30T09:22:34.244Z,4.50
2018-07-30T09:25:03.398Z,4.53
2018-07-30T09:27:32.000Z,4.00
2018-07-30T09:30:00.322Z,4.03
2018-07-30T09:32:28.966Z,4.20
2018-07-30T09:34:57.625Z,3.90
2018-07-30T09:37:27.223Z,3.93
2018-07-30T09:39:56.295Z,4.00
2018-07-30T09:42:24.969Z,4.00
2018-07-30T09:44:53.669Z,4.00
2018-07-30T09:47:22.308Z,3.87
2018-07-30T09:49:51.816Z,3.80
2018-07-30T09:52:20.495Z,4.00
2018-07-30T09:54:49.406Z,3.90
2018-07-30T09:57:19.368Z,4.00
2018-07-30T09:59:47.977Z,4.30
2018-07-30T10:02:16.580Z,3.90
2018-07-30T10:04:45.903Z,4.00
2018-07-30T10:07:15.469Z,4.00
2018-07-30T10:09:44.138Z,4.10
2018-07-30T10:12:12.775Z,3.80
2018-07-30T10:14:41.431Z,3.70
2018-07-30T10:17:10.155Z,3.77
2018-07-30T10:19:38.816Z,4.03
2018-07-30T10:22:07.462Z,3.60
2018-07-30T10:24:36.089Z,3.43
2018-07-30T10:29:47.597Z,2.90
2018-07-30T10:32:16.328Z,3.13
2018-07-30T10:34:45.748Z,3.37
2018-07-30T10:37:14.392Z,3.63
2018-07-30T10:39:43.120Z,3.30
2018-07-30T10:42:11.769Z,3.27
2018-07-30T10:44:40.480Z,3.57
2018-07-30T10:47:09.175Z,3.03
2018-07-30T10:49:38.551Z,3.10
2018-07-30T10:52:07.809Z,3.43
2018-07-30T10:54:36.456Z,3.00
2018-07-30T10:57:17.422Z,3.00
2018-07-30T10:59:46.060Z,3.07
2018-07-30T11:02:14.715Z,3.00
2018-07-30T11:04:43.710Z,3.37
2018-07-30T11:07:12.402Z,3.07
2018-07-30T11:09:41.180Z,2.73
2018-07-30T11:12:09.750Z,2.97
2018-07-30T11:14:40.156Z,2.90
2018-07-30T11:17:08.806Z,3.23
2018-07-30T11:19:37.486Z,3.40
2018-07-30T11:22:06.166Z,2.87
2018-07-30T11:24:35.080Z,2.90
2018-07-30T11:27:03.760Z,2.70
2018-07-30T11:29:32.532Z,2.83
2018-07-30T11:32:01.176Z,3.00
2018-07-30T11:34:30.115Z,2.97
2018-07-30T11:36:58.801Z,2.57
2018-07-30T11:39:27.448Z,2.80
2018-07-30T11:41:56.105Z,2.30
2018-07-30T11:44:24.756Z,2.30
2018-07-30T11:46:53.399Z,3.00
2018-07-30T11:49:22.356Z,2.60
2018-07-30T11:51:51.016Z,2.50
2018-07-30T11:54:19.709Z,2.63
2018-07-30T11:56:48.430Z,2.70
2018-07-30T11:59:17.147Z,2.80
2018-07-30T12:01:45.974Z,2.70
2018-07-30T12:04:14.637Z,3.17
2018-07-30T12:06:43.981Z,2.95
2018-07-30T12:09:12.615Z,2.92
2018-07-30T12:11:41.402Z,3.25
2018-07-30T12:14:11.066Z,2.90
2018-07-30T12:16:39.784Z,2.55
2018-07-30T12:19:08.468Z,3.15
2018-07-30T12:21:37.615Z,2.95
2018-07-30T12:24:06.975Z,2.90
2018-07-30T12:26:35.727Z,3.08
2018-07-30T12:29:04.472Z,2.60
2018-07-30T12:31:33.607Z,2.75
2018-07-30T12:34:02.778Z,2.87
2018-07-30T12:36:31.417Z,3.00
2018-07-30T12:39:01.919Z,2.67
2018-07-30T12:41:30.841Z,2.60
2018-07-30T12:43:59.573Z,2.75
2018-07-30T12:46:28.295Z,2.83
2018-07-30T12:48:56.987Z,2.85
2018-07-30T12:51:25.932Z,2.90
2018-07-30T12:53:55.268Z,2.98
2018-07-30T12:56:23.884Z,2.77
2018-07-30T12:58:52.594Z,2.70
2018-07-30T13:01:21.328Z,2.72
2018-07-30T13:03:50.950Z,3.08
2018-07-30T13:06:19.645Z,3.08
2018-07-30T13:08:49.344Z,2.90
2018-07-30T13:11:19.059Z,2.50
2018-07-30T13:13:47.816Z,3.02
2018-07-30T13:16:16.496Z,2.98
2018-07-30T13:18:45.164Z,2.98
2018-07-30T13:21:13.851Z,2.75
2018-07-30T13:23:42.572Z,3.10
2018-07-30T13:26:11.305Z,2.80
2018-07-30T13:28:39.964Z,2.45
2018-07-30T13:31:08.978Z,2.92
2018-07-30T13:33:37.596Z,2.70
2018-07-30T13:36:06.477Z,2.83
2018-07-30T13:38:35.294Z,2.77
2018-07-30T13:41:04.110Z,2.80
2018-07-30T13:43:33.018Z,2.65
2018-07-30T13:46:01.780Z,2.47
2018-07-30T13:48:30.752Z,2.50
2018-07-30T13:50:59.391Z,2.50
2018-07-30T13:53:28.113Z,2.75
2018-07-30T13:55:56.756Z,2.70
2018-07-30T13:58:25.428Z,3.12
2018-07-30T14:00:54.075Z,2.80
2018-07-30T14:03:23.103Z,3.10
2018-07-30T14:05:51.750Z,3.40
2018-07-30T14:08:20.483Z,2.98
2018-07-30T14:10:50.437Z,2.60
2018-07-30T14:13:19.281Z,2.70
2018-07-30T14:15:47.966Z,2.60
2018-07-30T14:18:16.865Z,3.40
2018-07-30T14:20:45.513Z,2.98
2018-07-30T14:23:14.475Z,2.75
2018-07-30T14:25:43.947Z,3.00
2018-07-30T14:28:13.293Z,3.02
2018-07-30T14:30:41.954Z,3.00
2018-07-30T14:33:11.900Z,2.90
2018-07-30T14:35:40.328Z,2.87
2018-07-30T14:38:09.020Z,3.47
2018-07-30T14:40:38.123Z,3.00
2018-07-30T14:43:06.897Z,3.10
2018-07-30T14:45:35.684Z,3.67
2018-07-30T14:48:05.554Z,3.58
2018-07-30T14:50:34.215Z,3.35
2018-07-30T14:53:02.866Z,3.30
2018-07-30T14:55:31.574Z,3.15
2018-07-30T14:58:00.334Z,3.55
2018-07-30T15:00:29.107Z,3.45
2018-07-30T15:02:58.244Z,3.35
2018-07-30T15:05:26.991Z,3.33
2018-07-30T15:07:56.308Z,3.42
2018-07-30T15:10:39.633Z,3.35
2018-07-30T15:13:08.488Z,3.10
2018-07-30T15:15:37.202Z,3.37
2018-07-30T15:18:05.946Z,3.30
2018-07-30T15:20:34.665Z,3.40
2018-07-30T15:23:03.310Z,3.47
2018-07-30T15:25:32.136Z,3.40
2018-07-30T15:28:01.451Z,3.40
2018-07-30T15:30:31.469Z,2.90
2018-07-30T15:33:06.778Z,3.30
2018-07-30T15:35:35.420Z,3.40
2018-07-30T15:38:04.144Z,3.27
2018-07-30T15:40:32.801Z,3.67
2018-07-30T15:43:01.515Z,3.42
2018-07-30T15:45:30.212Z,3.25
2018-07-30T15:47:58.928Z,3.50
2018-07-30T15:50:27.684Z,3.40
2018-07-30T15:52:56.366Z,2.90
2018-07-30T15:55:24.970Z,3.10
2018-07-30T15:57:53.672Z,3.17
2018-07-30T16:00:22.865Z,3.43
2018-07-30T16:02:51.484Z,3.47
2018-07-30T16:05:20.186Z,3.10
2018-07-30T16:07:48.835Z,3.30
2018-07-30T16:10:17.534Z,3.17
2018-07-30T16:12:46.178Z,3.47
2018-07-30T16:15:14.827Z,3.20
2018-07-30T16:17:43.443Z,3.53
2018-07-30T16:20:12.099Z,3.50
2018-07-30T16:22:40.862Z,3.20
2018-07-30T16:25:09.465Z,3.30
2018-07-30T16:27:38.066Z,3.33
2018-07-30T16:30:07.991Z,3.30
2018-07-30T16:32:36.962Z,3.10
2018-07-30T16:35:05.842Z,3.30
2018-07-30T16:37:34.470Z,2.97
2018-07-30T16:40:03.214Z,3.20
2018-07-30T16:42:31.818Z,3.22
2018-07-30T16:45:03.028Z,2.98
2018-07-30T16:47:31.747Z,3.42
2018-07-30T16:50:01.378Z,3.85
2018-07-30T16:52:29.972Z,3.42
2018-07-30T16:54:59.392Z,3.52
2018-07-30T16:57:28.032Z,3.30
2018-07-30T16:59:57.481Z,4.42
2018-07-30T17:02:26.104Z,3.27
2018-07-30T17:04:54.682Z,3.30
2018-07-30T17:07:24.170Z,3.20
2018-07-30T17:09:52.800Z,3.17
2018-07-30T17:12:21.486Z,3.20
2018-07-30T17:14:50.063Z,8.77
2018-07-30T17:17:19.208Z,3.00
2018-07-30T17:19:47.871Z,3.30
2018-07-30T17:22:17.415Z,2.98
2018-07-30T17:24:47.066Z,3.70
2018-07-30T17:27:15.892Z,3.10
2018-07-30T17:29:44.743Z,2.90
2018-07-30T17:32:13.443Z,3.77
2018-07-30T17:34:42.163Z,3.27
2018-07-30T17:37:11.068Z,2.80
2018-07-30T17:39:39.747Z,3.27
2018-07-30T17:42:08.394Z,3.17
2018-07-30T17:44:37.113Z,3.30
2018-07-30T17:47:08.380Z,3.40
2018-07-30T17:49:37.071Z,3.57
2018-07-30T17:52:05.800Z,3.90
2018-07-30T17:54:34.541Z,3.20
2018-07-30T17:57:03.171Z,3.67
2018-07-30T17:59:31.856Z,3.20
2018-07-30T18:02:00.551Z,3.30
2018-07-30T18:04:29.294Z,3.10
2018-07-30T18:06:58.618Z,3.23
2018-07-30T18:09:27.251Z,3.47
2018-07-30T18:11:55.977Z,3.10
2018-07-30T18:14:24.960Z,3.33
2018-07-30T18:16:53.823Z,3.50
2018-07-30T18:19:24.367Z,3.30
2018-07-30T18:21:53.056Z,3.40
2018-07-30T18:24:27.399Z,2.90
2018-07-30T18:26:56.787Z,3.20
2018-07-30T18:29:25.478Z,3.07
2018-07-30T18:31:54.161Z,3.40
2018-07-30T18:34:22.403Z,3.40
2018-07-30T18:36:51.321Z,3.23
2018-07-30T18:39:19.980Z,3.40
2018-07-30T18:41:48.719Z,4.07
2018-07-30T18:44:17.423Z,4.27
2018-07-30T18:46:47.033Z,4.23
2018-07-30T18:49:19.588Z,4.00
2018-07-30T18:51:49.261Z,3.60
2018-07-30T18:54:18.973Z,4.10
2018-07-30T18:56:48.134Z,4.50
2018-07-30T18:59:16.777Z,4.10
2018-07-30T19:01:45.817Z,3.80
2018-07-30T19:04:14.453Z,4.47
2018-07-30T19:06:43.045Z,4.03
2018-07-30T19:09:11.704Z,4.37
2018-07-30T19:11:40.440Z,3.80
2018-07-30T19:14:09.191Z,4.50
2018-07-30T19:16:37.845Z,4.37
2018-07-30T19:19:06.487Z,6.53
2018-07-30T19:21:35.166Z,6.30
2018-07-30T19:24:05.255Z,5.33
2018-07-30T19:26:36.562Z,4.87
2018-07-30T19:29:05.258Z,4.53
2018-07-30T19:31:35.148Z,5.13
2018-07-30T19:34:04.989Z,5.70
2018-07-30T19:36:34.647Z,5.57
2018-07-30T19:39:03.981Z,4.63
2018-07-30T19:41:32.600Z,4.60
2018-07-30T19:44:03.492Z,4.23
2018-07-30T19:46:32.033Z,4.03
2018-07-30T19:49:00.723Z,4.33
2018-07-30T19:51:30.098Z,4.47
2018-07-30T19:53:58.793Z,4.20
2018-07-30T19:56:27.684Z,4.27
2018-07-30T19:58:56.590Z,3.83
2018-07-30T20:01:26.083Z,4.17
2018-07-30T20:03:56.183Z,3.87
2018-07-30T20:06:24.792Z,4.30
2018-07-30T20:08:53.531Z,4.10
2018-07-30T20:11:22.193Z,3.80
2018-07-30T20:13:50.843Z,4.20
2018-07-30T20:16:19.469Z,3.83
2018-07-30T20:18:48.134Z,4.03
2018-07-30T20:21:17.129Z,3.90
2018-07-30T20:23:45.781Z,3.60
2018-07-30T20:26:14.963Z,4.10
2018-07-30T20:28:43.699Z,3.60
2018-07-30T20:31:16.503Z,3.97
2018-07-30T20:33:45.164Z,4.13
2018-07-30T20:36:15.676Z,4.30
2018-07-30T20:38:44.322Z,4.37
2018-07-30T20:41:13.188Z,4.33
2018-07-30T20:43:42.426Z,3.93
2018-07-30T20:46:11.077Z,3.80
2018-07-30T20:48:39.768Z,3.73
2018-07-30T20:51:08.515Z,3.70
2018-07-30T20:53:37.350Z,3.80
2018-07-30T20:56:07.018Z,4.07
2018-07-30T20:58:35.633Z,4.07
2018-07-30T21:01:04.300Z,4.30
2018-07-30T21:03:32.947Z,3.80
2018-07-30T21:06:01.184Z,4.20
2018-07-30T21:08:30.475Z,3.57
2018-07-30T21:10:59.735Z,3.93
2018-07-30T21:13:28.331Z,3.90
2018-07-30T21:15:56.951Z,4.00
2018-07-30T21:18:25.536Z,3.90
2018-07-30T21:20:54.342Z,4.10
2018-07-30T21:23:23.536Z,3.93
2018-07-30T21:25:52.367Z,3.70
2018-07-30T21:28:21.206Z,4.20
2018-07-30T21:30:49.964Z,3.77
2018-07-30T21:33:18.662Z,3.80
2018-07-30T21:35:47.483Z,4.07
2018-07-30T21:38:16.305Z,4.07
2018-07-30T21:40:44.940Z,3.83
2018-07-30T21:43:13.944Z,3.80
2018-07-30T21:45:42.553Z,4.30
2018-07-30T21:48:11.158Z,3.83
2018-07-30T21:50:40.384Z,4.00
2018-07-30T21:53:09.339Z,3.87
2018-07-30T21:55:38.236Z,4.20
2018-07-30T21:58:07.104Z,4.00
2018-07-30T22:00:36.160Z,4.07
2018-07-30T22:03:05.848Z,3.90
2018-07-30T22:05:34.898Z,3.90
2018-07-30T22:08:04.463Z,4.10
2018-07-30T22:10:33.340Z,4.10
2018-07-30T22:13:01.967Z,4.17
2018-07-30T22:15:31.265Z,4.03
2018-07-30T22:18:00.147Z,3.90
2018-07-30T22:20:29.397Z,3.90
2018-07-30T22:22:58.308Z,4.00
2018-07-30T22:25:27.560Z,4.03
2018-07-30T22:27:57.124Z,3.63
2018-07-30T22:30:26.357Z,3.77
2018-07-30T22:32:55.127Z,4.03
2018-07-30T22:35:24.056Z,3.67
2018-07-30T22:37:53.399Z,4.20
2018-07-30T22:40:22.491Z,3.90
2018-07-30T22:42:51.117Z,3.60
2018-07-30T22:45:19.759Z,3.73
2018-07-30T22:47:48.394Z,4.20
2018-07-30T22:50:18.043Z,3.63
2018-07-30T22:52:47.721Z,3.93
2018-07-30T22:55:20.222Z,3.83
2018-07-30T22:57:49.681Z,4.00
2018-07-30T23:00:20.580Z,4.10
